โตเกียว, ประเทศญี่ปุ่น

08:37 AM JST วัน พฤศจิกายน 24, 2014 (GMT +0900)
Tokyo (Haneda) International | Change Station
CLOSE
Current Station
Airport
Location: Tokyo,
Elevation: 26 ft
Nearby Weather Stations

Elev 26 ft 35.55 °N, 139.78 °E | Updated 7 minutes ago

Mostly Cloudy
มีเมฆคลุมเป็นส่วนใหญ่
55 ฟาเรนไฮน์
Feels Like 55 ฟาเรนไฮน์
N
9
ลม ความผันแปร ลม from ทางทิศเหนือ

วันนี้
High -- | Low -- ฟาเรนไฮน์
--% Chance of Precip.
Yesterday
High -- | Low -- ฟาเรนไฮน์
Precip. -- นิ้ว
6:24 AM 4:29 PM
เดือนเสี้ยว, 3% visible
ความดัน 30.24 นิ้ว
ทัศนวิสัย 6.2 ไมล์
เมฆ มีเมฆคลุมเป็นส่วนใหญ่ 3500 ft
อุณหภูมิที่อากาศอาจจับตัวเป็นหยาดน้ำค้าง 45 ฟาเรนไฮน์
ความชื้น 67%
Rainfall 0.00 นิ้ว
Snow Depth Not available.
UV 1 out of 12
Pollen Not available.
Air Quality Not available.
Flu Activity Not available.
METAR RJTT 232330Z 36008KT 9999 BKN035 13/07 Q1024 NOSIG RMK 7SC035 A3024

More Conditions Fewer Conditions

ความดัน 30.24 นิ้ว
ทัศนวิสัย 6.2 ไมล์
เมฆ มีเมฆคลุมเป็นส่วนใหญ่ 3500 ft
อุณหภูมิที่อากาศอาจจับตัวเป็นหยาดน้ำค้าง 45 ฟาเรนไฮน์
ความชื้น 67%
Rainfall 0.00 นิ้ว
Snow Depth Not available.
UV 1 out of 12
Pollen Not available.
Air Quality Not available.
Flu Activity Not available.
METAR RJTT 232330Z 36008KT 9999 BKN035 13/07 Q1024 NOSIG RMK 7SC035 A3024

More Conditions Fewer Conditions

10-Day Weather Forecast

Almanac

ดาราศาสตร์

Nov. 24, 2014 Rise Set
Actual Time
Civil Twilight
Nautical Twilight
Astronomical Twilight
Moon
Length Of Visible Light
ความยาวของวัน
Tomorrow will be .
, % of the Moon is Illuminated

Today's Extremes

Country Highs Country Lows

Community

WunderPhotos

Upload Photos

1,773,204 photos uploaded!

WunderBlogs® & News

Nearby

Air Quality

  Air Quality AQ Index Pollutant
Not available.

Snow Depth

Station Depth Elevation

Earthquake Activity

City Distance Mag. Time & Date
Minimum magnitude displayed is 2.5.

Coastal Water Temperatures

สถานที่ อุณหภูมิ

Nearby Weather Stations